sensor_id;sensor_type;location;lat;lon;timestamp;P1;durP1;ratioP1;P2;durP2;ratioP2
11338;SDS011;5724;42.684;23.252;2023-06-14T00:02:16;5.93;;;5.53;;
11338;SDS011;5724;42.684;23.252;2023-06-14T00:04:42;6.20;;;5.70;;
11338;SDS011;5724;42.684;23.252;2023-06-14T00:07:08;6.68;;;6.32;;
11338;SDS011;5724;42.684;23.252;2023-06-14T00:09:34;6.60;;;6.10;;
11338;SDS011;5724;42.684;23.252;2023-06-14T00:12:00;6.13;;;5.93;;
11338;SDS011;5724;42.684;23.252;2023-06-14T00:14:26;6.28;;;5.88;;
11338;SDS011;5724;42.684;23.252;2023-06-14T00:16:51;5.80;;;5.55;;
11338;SDS011;5724;42.684;23.252;2023-06-14T00:19:23;6.97;;;6.57;;
11338;SDS011;5724;42.684;23.252;2023-06-14T00:21:50;6.45;;;6.05;;
11338;SDS011;5724;42.684;23.252;2023-06-14T00:24:17;6.07;;;5.60;;
11338;SDS011;5724;42.684;23.252;2023-06-14T00:26:42;6.18;;;5.45;;
11338;SDS011;5724;42.684;23.252;2023-06-14T00:29:08;5.53;;;5.13;;
11338;SDS011;5724;42.684;23.252;2023-06-14T00:31:33;6.25;;;5.95;;
11338;SDS011;5724;42.684;23.252;2023-06-14T00:33:58;5.00;;;4.70;;
11338;SDS011;5724;42.684;23.252;2023-06-14T00:36:24;5.60;;;5.10;;
11338;SDS011;5724;42.684;23.252;2023-06-14T00:38:49;5.22;;;4.82;;
11338;SDS011;5724;42.684;23.252;2023-06-14T00:41:15;5.22;;;4.95;;
11338;SDS011;5724;42.684;23.252;2023-06-14T00:43:40;6.68;;;5.90;;
11338;SDS011;5724;42.684;23.252;2023-06-14T00:46:06;5.30;;;4.97;;
11338;SDS011;5724;42.684;23.252;2023-06-14T00:48:31;5.13;;;4.93;;
11338;SDS011;5724;42.684;23.252;2023-06-14T00:50:58;5.18;;;4.88;;
11338;SDS011;5724;42.684;23.252;2023-06-14T00:53:27;5.32;;;4.90;;
11338;SDS011;5724;42.684;23.252;2023-06-14T00:55:52;5.15;;;4.85;;
11338;SDS011;5724;42.684;23.252;2023-06-14T00:58:18;5.07;;;4.78;;
11338;SDS011;5724;42.684;23.252;2023-06-14T01:00:44;4.60;;;4.40;;
11338;SDS011;5724;42.684;23.252;2023-06-14T01:03:10;5.43;;;5.07;;
11338;SDS011;5724;42.684;23.252;2023-06-14T01:05:37;4.93;;;4.63;;
11338;SDS011;5724;42.684;23.252;2023-06-14T01:10:56;4.88;;;4.57;;
11338;SDS011;5724;42.684;23.252;2023-06-14T01:13:33;5.13;;;4.68;;
11338;SDS011;5724;42.684;23.252;2023-06-14T01:16:01;4.80;;;4.60;;
11338;SDS011;5724;42.684;23.252;2023-06-14T01:18:27;6.82;;;4.95;;
11338;SDS011;5724;42.684;23.252;2023-06-14T01:20:54;4.72;;;4.43;;
11338;SDS011;5724;42.684;23.252;2023-06-14T01:23:22;5.47;;;4.82;;
11338;SDS011;5724;42.684;23.252;2023-06-14T01:25:48;4.85;;;4.53;;
11338;SDS011;5724;42.684;23.252;2023-06-14T01:28:18;5.53;;;5.13;;
11338;SDS011;5724;42.684;23.252;2023-06-14T01:30:48;19.98;;;18.20;;
11338;SDS011;5724;42.684;23.252;2023-06-14T01:33:21;19.65;;;17.90;;
11338;SDS011;5724;42.684;23.252;2023-06-14T01:35:52;12.82;;;11.75;;
11338;SDS011;5724;42.684;23.252;2023-06-14T01:38:19;9.40;;;8.75;;
11338;SDS011;5724;42.684;23.252;2023-06-14T01:40:47;7.40;;;6.90;;
11338;SDS011;5724;42.684;23.252;2023-06-14T01:43:13;5.57;;;5.28;;
11338;SDS011;5724;42.684;23.252;2023-06-14T01:45:41;6.95;;;6.65;;
11338;SDS011;5724;42.684;23.252;2023-06-14T01:48:09;7.15;;;6.65;;
11338;SDS011;5724;42.684;23.252;2023-06-14T01:50:34;7.00;;;6.40;;
11338;SDS011;5724;42.684;23.252;2023-06-14T01:53:00;5.95;;;5.50;;
11338;SDS011;5724;42.684;23.252;2023-06-14T01:55:26;5.75;;;5.35;;
11338;SDS011;5724;42.684;23.252;2023-06-14T01:57:52;5.53;;;5.32;;
11338;SDS011;5724;42.684;23.252;2023-06-14T02:00:18;5.90;;;5.60;;
11338;SDS011;5724;42.684;23.252;2023-06-14T02:02:44;6.50;;;6.10;;
11338;SDS011;5724;42.684;23.252;2023-06-14T02:05:11;6.63;;;6.00;;
11338;SDS011;5724;42.684;23.252;2023-06-14T02:07:36;6.88;;;6.40;;
11338;SDS011;5724;42.684;23.252;2023-06-14T02:10:04;6.28;;;5.88;;
11338;SDS011;5724;42.684;23.252;2023-06-14T02:12:30;5.93;;;5.50;;
11338;SDS011;5724;42.684;23.252;2023-06-14T02:14:56;5.82;;;5.63;;
11338;SDS011;5724;42.684;23.252;2023-06-14T02:17:21;5.65;;;5.43;;
11338;SDS011;5724;42.684;23.252;2023-06-14T02:19:47;5.90;;;5.60;;
11338;SDS011;5724;42.684;23.252;2023-06-14T02:22:14;6.75;;;5.70;;
11338;SDS011;5724;42.684;23.252;2023-06-14T02:24:40;6.07;;;5.88;;
11338;SDS011;5724;42.684;23.252;2023-06-14T02:27:06;6.43;;;6.13;;
11338;SDS011;5724;42.684;23.252;2023-06-14T02:29:33;7.28;;;6.75;;
11338;SDS011;5724;42.684;23.252;2023-06-14T02:31:59;6.75;;;6.35;;
11338;SDS011;5724;42.684;23.252;2023-06-14T02:34:24;7.05;;;6.70;;
11338;SDS011;5724;42.684;23.252;2023-06-14T02:36:50;7.40;;;6.95;;
11338;SDS011;5724;42.684;23.252;2023-06-14T02:39:15;8.38;;;7.70;;
11338;SDS011;5724;42.684;23.252;2023-06-14T02:41:41;7.10;;;6.75;;
11338;SDS011;5724;42.684;23.252;2023-06-14T02:44:07;7.75;;;7.13;;
11338;SDS011;5724;42.684;23.252;2023-06-14T02:46:32;8.02;;;7.63;;
11338;SDS011;5724;42.684;23.252;2023-06-14T02:48:58;7.95;;;7.50;;
11338;SDS011;5724;42.684;23.252;2023-06-14T02:51:24;7.82;;;7.43;;
11338;SDS011;5724;42.684;23.252;2023-06-14T02:53:49;7.38;;;7.05;;
11338;SDS011;5724;42.684;23.252;2023-06-14T02:56:15;7.75;;;7.18;;
11338;SDS011;5724;42.684;23.252;2023-06-14T02:58:42;6.82;;;6.50;;
11338;SDS011;5724;42.684;23.252;2023-06-14T03:01:08;7.45;;;6.97;;
11338;SDS011;5724;42.684;23.252;2023-06-14T03:03:35;7.38;;;6.88;;
11338;SDS011;5724;42.684;23.252;2023-06-14T03:06:01;6.45;;;6.07;;
11338;SDS011;5724;42.684;23.252;2023-06-14T03:08:30;7.05;;;6.40;;
11338;SDS011;5724;42.684;23.252;2023-06-14T03:11:03;7.03;;;6.57;;
11338;SDS011;5724;42.684;23.252;2023-06-14T03:13:33;6.38;;;5.82;;
11338;SDS011;5724;42.684;23.252;2023-06-14T03:16:03;6.75;;;6.25;;
11338;SDS011;5724;42.684;23.252;2023-06-14T03:18:29;6.75;;;6.32;;
11338;SDS011;5724;42.684;23.252;2023-06-14T03:20:56;6.72;;;6.32;;
11338;SDS011;5724;42.684;23.252;2023-06-14T03:23:26;6.53;;;6.18;;
11338;SDS011;5724;42.684;23.252;2023-06-14T03:25:51;6.32;;;6.10;;
11338;SDS011;5724;42.684;23.252;2023-06-14T03:28:17;7.03;;;6.57;;
11338;SDS011;5724;42.684;23.252;2023-06-14T03:30:42;7.13;;;6.60;;
11338;SDS011;5724;42.684;23.252;2023-06-14T03:33:08;6.97;;;6.47;;
11338;SDS011;5724;42.684;23.252;2023-06-14T03:35:34;7.45;;;6.90;;
11338;SDS011;5724;42.684;23.252;2023-06-14T03:38:00;7.50;;;7.10;;
11338;SDS011;5724;42.684;23.252;2023-06-14T03:40:25;8.10;;;7.70;;
11338;SDS011;5724;42.684;23.252;2023-06-14T03:42:53;7.63;;;7.22;;
11338;SDS011;5724;42.684;23.252;2023-06-14T03:45:19;7.15;;;6.85;;
11338;SDS011;5724;42.684;23.252;2023-06-14T03:47:45;6.85;;;6.43;;
11338;SDS011;5724;42.684;23.252;2023-06-14T03:50:11;8.88;;;8.38;;
11338;SDS011;5724;42.684;23.252;2023-06-14T03:52:37;6.80;;;6.40;;
11338;SDS011;5724;42.684;23.252;2023-06-14T03:55:03;6.75;;;6.45;;
11338;SDS011;5724;42.684;23.252;2023-06-14T03:57:29;6.53;;;6.22;;
11338;SDS011;5724;42.684;23.252;2023-06-14T03:59:55;6.40;;;6.00;;
11338;SDS011;5724;42.684;23.252;2023-06-14T04:02:20;6.05;;;5.65;;
11338;SDS011;5724;42.684;23.252;2023-06-14T04:04:47;5.95;;;5.55;;
11338;SDS011;5724;42.684;23.252;2023-06-14T04:07:13;6.43;;;5.32;;
11338;SDS011;5724;42.684;23.252;2023-06-14T04:09:40;5.68;;;5.40;;
11338;SDS011;5724;42.684;23.252;2023-06-14T04:12:06;6.00;;;5.45;;
11338;SDS011;5724;42.684;23.252;2023-06-14T04:14:34;5.28;;;4.82;;
11338;SDS011;5724;42.684;23.252;2023-06-14T04:16:59;5.93;;;5.45;;
11338;SDS011;5724;42.684;23.252;2023-06-14T04:19:26;4.97;;;4.68;;
11338;SDS011;5724;42.684;23.252;2023-06-14T04:21:51;5.05;;;4.85;;
11338;SDS011;5724;42.684;23.252;2023-06-14T04:24:17;4.70;;;4.40;;
11338;SDS011;5724;42.684;23.252;2023-06-14T04:26:43;4.47;;;4.07;;
11338;SDS011;5724;42.684;23.252;2023-06-14T04:29:18;4.10;;;3.90;;
11338;SDS011;5724;42.684;23.252;2023-06-14T04:31:44;6.80;;;6.20;;
11338;SDS011;5724;42.684;23.252;2023-06-14T04:34:12;6.03;;;5.72;;
11338;SDS011;5724;42.684;23.252;2023-06-14T04:36:43;6.00;;;5.70;;
11338;SDS011;5724;42.684;23.252;2023-06-14T04:39:14;5.47;;;5.22;;
11338;SDS011;5724;42.684;23.252;2023-06-14T04:41:42;5.72;;;5.30;;
11338;SDS011;5724;42.684;23.252;2023-06-14T04:44:08;7.28;;;6.70;;
11338;SDS011;5724;42.684;23.252;2023-06-14T04:46:35;7.72;;;7.32;;
11338;SDS011;5724;42.684;23.252;2023-06-14T04:49:09;6.90;;;6.50;;
11338;SDS011;5724;42.684;23.252;2023-06-14T04:51:35;7.82;;;7.28;;
11338;SDS011;5724;42.684;23.252;2023-06-14T04:54:02;7.38;;;6.97;;
11338;SDS011;5724;42.684;23.252;2023-06-14T04:56:28;8.25;;;7.75;;
11338;SDS011;5724;42.684;23.252;2023-06-14T04:58:54;8.13;;;7.72;;
11338;SDS011;5724;42.684;23.252;2023-06-14T05:01:21;7.60;;;7.03;;
11338;SDS011;5724;42.684;23.252;2023-06-14T05:03:48;8.45;;;7.65;;
11338;SDS011;5724;42.684;23.252;2023-06-14T05:06:14;8.07;;;7.55;;
11338;SDS011;5724;42.684;23.252;2023-06-14T05:08:41;7.10;;;6.80;;
11338;SDS011;5724;42.684;23.252;2023-06-14T05:11:06;7.63;;;7.13;;
11338;SDS011;5724;42.684;23.252;2023-06-14T05:13:32;8.68;;;7.88;;
11338;SDS011;5724;42.684;23.252;2023-06-14T05:15:58;8.02;;;7.43;;
11338;SDS011;5724;42.684;23.252;2023-06-14T05:18:24;7.75;;;7.28;;
11338;SDS011;5724;42.684;23.252;2023-06-14T05:20:50;8.20;;;7.47;;
11338;SDS011;5724;42.684;23.252;2023-06-14T05:23:16;8.70;;;7.95;;
11338;SDS011;5724;42.684;23.252;2023-06-14T05:25:45;9.00;;;8.50;;
11338;SDS011;5724;42.684;23.252;2023-06-14T05:28:11;7.75;;;7.30;;
11338;SDS011;5724;42.684;23.252;2023-06-14T05:30:37;8.90;;;8.40;;
11338;SDS011;5724;42.684;23.252;2023-06-14T05:33:04;8.27;;;7.57;;
11338;SDS011;5724;42.684;23.252;2023-06-14T05:35:31;7.65;;;7.25;;
11338;SDS011;5724;42.684;23.252;2023-06-14T05:37:56;6.93;;;6.47;;
11338;SDS011;5724;42.684;23.252;2023-06-14T05:40:21;8.50;;;7.70;;
11338;SDS011;5724;42.684;23.252;2023-06-14T05:42:47;10.00;;;9.07;;
11338;SDS011;5724;42.684;23.252;2023-06-14T05:45:12;9.40;;;8.73;;
11338;SDS011;5724;42.684;23.252;2023-06-14T05:47:40;10.07;;;9.20;;
11338;SDS011;5724;42.684;23.252;2023-06-14T05:50:05;9.90;;;9.25;;
11338;SDS011;5724;42.684;23.252;2023-06-14T05:52:31;8.45;;;7.90;;
11338;SDS011;5724;42.684;23.252;2023-06-14T05:54:56;9.20;;;8.48;;
11338;SDS011;5724;42.684;23.252;2023-06-14T05:57:22;7.72;;;7.32;;
11338;SDS011;5724;42.684;23.252;2023-06-14T05:59:47;7.72;;;7.22;;
11338;SDS011;5724;42.684;23.252;2023-06-14T06:02:13;8.05;;;7.45;;
11338;SDS011;5724;42.684;23.252;2023-06-14T06:04:38;8.48;;;8.00;;
11338;SDS011;5724;42.684;23.252;2023-06-14T06:07:04;8.30;;;7.90;;
11338;SDS011;5724;42.684;23.252;2023-06-14T06:09:30;8.48;;;7.90;;
11338;SDS011;5724;42.684;23.252;2023-06-14T06:11:56;8.18;;;7.68;;
11338;SDS011;5724;42.684;23.252;2023-06-14T06:14:21;8.68;;;8.02;;
11338;SDS011;5724;42.684;23.252;2023-06-14T06:16:46;8.07;;;7.60;;
11338;SDS011;5724;42.684;23.252;2023-06-14T06:19:12;8.45;;;7.93;;
11338;SDS011;5724;42.684;23.252;2023-06-14T06:21:37;9.75;;;9.05;;
11338;SDS011;5724;42.684;23.252;2023-06-14T06:24:04;8.25;;;7.85;;
11338;SDS011;5724;42.684;23.252;2023-06-14T06:26:30;8.20;;;7.85;;
11338;SDS011;5724;42.684;23.252;2023-06-14T06:28:57;8.93;;;8.32;;
11338;SDS011;5724;42.684;23.252;2023-06-14T06:31:23;8.10;;;7.53;;
11338;SDS011;5724;42.684;23.252;2023-06-14T06:33:48;8.82;;;8.10;;
11338;SDS011;5724;42.684;23.252;2023-06-14T06:36:14;9.07;;;8.40;;
11338;SDS011;5724;42.684;23.252;2023-06-14T06:38:40;9.43;;;8.50;;
11338;SDS011;5724;42.684;23.252;2023-06-14T06:41:05;10.05;;;9.40;;
11338;SDS011;5724;42.684;23.252;2023-06-14T06:43:31;9.68;;;8.98;;
11338;SDS011;5724;42.684;23.252;2023-06-14T06:45:56;9.93;;;9.20;;
11338;SDS011;5724;42.684;23.252;2023-06-14T06:48:22;9.25;;;8.65;;
11338;SDS011;5724;42.684;23.252;2023-06-14T06:50:47;9.27;;;8.77;;
11338;SDS011;5724;42.684;23.252;2023-06-14T06:53:13;10.00;;;9.30;;
11338;SDS011;5724;42.684;23.252;2023-06-14T06:55:38;10.15;;;9.35;;
11338;SDS011;5724;42.684;23.252;2023-06-14T06:58:04;10.10;;;9.40;;
11338;SDS011;5724;42.684;23.252;2023-06-14T07:00:30;11.15;;;10.20;;
11338;SDS011;5724;42.684;23.252;2023-06-14T07:02:56;10.50;;;9.55;;
11338;SDS011;5724;42.684;23.252;2023-06-14T07:05:22;10.20;;;9.50;;
11338;SDS011;5724;42.684;23.252;2023-06-14T07:07:48;9.93;;;9.23;;
11338;SDS011;5724;42.684;23.252;2023-06-14T07:10:13;10.00;;;9.38;;
11338;SDS011;5724;42.684;23.252;2023-06-14T07:12:38;10.63;;;9.73;;
11338;SDS011;5724;42.684;23.252;2023-06-14T07:15:05;11.27;;;10.35;;
11338;SDS011;5724;42.684;23.252;2023-06-14T07:17:34;10.43;;;9.73;;
11338;SDS011;5724;42.684;23.252;2023-06-14T07:20:01;9.95;;;9.35;;
11338;SDS011;5724;42.684;23.252;2023-06-14T07:22:42;10.98;;;10.13;;
11338;SDS011;5724;42.684;23.252;2023-06-14T07:25:08;11.90;;;10.95;;
11338;SDS011;5724;42.684;23.252;2023-06-14T07:27:37;11.45;;;10.65;;
11338;SDS011;5724;42.684;23.252;2023-06-14T07:30:02;11.10;;;10.27;;
11338;SDS011;5724;42.684;23.252;2023-06-14T07:32:29;11.07;;;10.32;;
11338;SDS011;5724;42.684;23.252;2023-06-14T07:34:54;11.40;;;10.60;;
11338;SDS011;5724;42.684;23.252;2023-06-14T07:37:20;11.23;;;10.32;;
11338;SDS011;5724;42.684;23.252;2023-06-14T07:39:45;12.32;;;11.32;;
11338;SDS011;5724;42.684;23.252;2023-06-14T07:42:11;11.93;;;11.02;;
11338;SDS011;5724;42.684;23.252;2023-06-14T07:44:36;11.48;;;10.85;;
11338;SDS011;5724;42.684;23.252;2023-06-14T07:47:02;11.52;;;10.68;;
11338;SDS011;5724;42.684;23.252;2023-06-14T07:49:28;10.68;;;9.88;;
11338;SDS011;5724;42.684;23.252;2023-06-14T07:51:53;11.25;;;10.55;;
11338;SDS011;5724;42.684;23.252;2023-06-14T07:54:19;11.95;;;11.02;;
11338;SDS011;5724;42.684;23.252;2023-06-14T07:56:49;12.27;;;11.38;;
11338;SDS011;5724;42.684;23.252;2023-06-14T07:59:15;11.48;;;10.52;;
11338;SDS011;5724;42.684;23.252;2023-06-14T08:01:40;12.95;;;11.55;;
11338;SDS011;5724;42.684;23.252;2023-06-14T08:04:13;11.20;;;10.40;;
11338;SDS011;5724;42.684;23.252;2023-06-14T08:06:39;13.35;;;12.18;;
11338;SDS011;5724;42.684;23.252;2023-06-14T08:09:05;12.18;;;11.30;;
11338;SDS011;5724;42.684;23.252;2023-06-14T08:11:30;12.35;;;11.23;;
11338;SDS011;5724;42.684;23.252;2023-06-14T08:13:56;12.02;;;10.93;;
11338;SDS011;5724;42.684;23.252;2023-06-14T08:16:22;13.32;;;12.00;;
11338;SDS011;5724;42.684;23.252;2023-06-14T08:18:48;12.80;;;11.63;;
11338;SDS011;5724;42.684;23.252;2023-06-14T08:21:13;12.52;;;11.63;;
11338;SDS011;5724;42.684;23.252;2023-06-14T08:23:40;10.93;;;9.88;;
11338;SDS011;5724;42.684;23.252;2023-06-14T08:26:08;11.23;;;10.27;;
11338;SDS011;5724;42.684;23.252;2023-06-14T08:28:34;11.77;;;10.90;;
11338;SDS011;5724;42.684;23.252;2023-06-14T08:30:59;11.75;;;10.65;;
11338;SDS011;5724;42.684;23.252;2023-06-14T08:33:25;71.80;;;22.95;;
11338;SDS011;5724;42.684;23.252;2023-06-14T08:35:51;17.58;;;15.68;;
11338;SDS011;5724;42.684;23.252;2023-06-14T08:38:16;94.93;;;27.67;;
11338;SDS011;5724;42.684;23.252;2023-06-14T08:40:42;24.67;;;15.38;;
11338;SDS011;5724;42.684;23.252;2023-06-14T08:43:07;12.52;;;11.55;;
11338;SDS011;5724;42.684;23.252;2023-06-14T08:45:35;11.95;;;11.05;;
11338;SDS011;5724;42.684;23.252;2023-06-14T08:48:00;13.32;;;12.00;;
11338;SDS011;5724;42.684;23.252;2023-06-14T08:50:27;11.50;;;10.80;;
11338;SDS011;5724;42.684;23.252;2023-06-14T08:52:57;12.38;;;11.35;;
11338;SDS011;5724;42.684;23.252;2023-06-14T08:55:27;14.25;;;12.60;;
11338;SDS011;5724;42.684;23.252;2023-06-14T08:57:57;13.70;;;12.52;;
11338;SDS011;5724;42.684;23.252;2023-06-14T09:00:23;20.50;;;14.20;;
11338;SDS011;5724;42.684;23.252;2023-06-14T09:02:50;13.27;;;12.02;;
11338;SDS011;5724;42.684;23.252;2023-06-14T09:05:21;11.93;;;11.02;;
11338;SDS011;5724;42.684;23.252;2023-06-14T09:07:48;13.30;;;12.05;;
11338;SDS011;5724;42.684;23.252;2023-06-14T09:10:15;13.57;;;12.38;;
11338;SDS011;5724;42.684;23.252;2023-06-14T09:12:41;13.02;;;11.75;;
11338;SDS011;5724;42.684;23.252;2023-06-14T09:15:07;12.05;;;11.15;;
11338;SDS011;5724;42.684;23.252;2023-06-14T09:17:37;12.18;;;11.20;;
11338;SDS011;5724;42.684;23.252;2023-06-14T09:20:04;12.95;;;11.65;;
11338;SDS011;5724;42.684;23.252;2023-06-14T09:22:38;12.00;;;11.30;;
11338;SDS011;5724;42.684;23.252;2023-06-14T09:25:04;12.10;;;11.15;;
11338;SDS011;5724;42.684;23.252;2023-06-14T09:27:31;11.85;;;10.88;;
11338;SDS011;5724;42.684;23.252;2023-06-14T09:29:57;11.35;;;10.55;;
11338;SDS011;5724;42.684;23.252;2023-06-14T09:32:22;12.02;;;10.95;;
11338;SDS011;5724;42.684;23.252;2023-06-14T09:34:48;11.75;;;10.73;;
11338;SDS011;5724;42.684;23.252;2023-06-14T09:37:29;12.50;;;11.57;;
11338;SDS011;5724;42.684;23.252;2023-06-14T09:39:57;12.50;;;11.45;;
11338;SDS011;5724;42.684;23.252;2023-06-14T09:42:23;12.30;;;11.18;;
11338;SDS011;5724;42.684;23.252;2023-06-14T09:44:51;11.90;;;11.07;;
11338;SDS011;5724;42.684;23.252;2023-06-14T09:47:17;11.15;;;10.45;;
11338;SDS011;5724;42.684;23.252;2023-06-14T09:49:43;12.18;;;11.30;;
11338;SDS011;5724;42.684;23.252;2023-06-14T09:52:14;12.50;;;11.38;;
11338;SDS011;5724;42.684;23.252;2023-06-14T09:54:42;12.05;;;11.13;;
11338;SDS011;5724;42.684;23.252;2023-06-14T09:57:10;11.95;;;10.90;;
11338;SDS011;5724;42.684;23.252;2023-06-14T09:59:36;12.70;;;11.70;;
11338;SDS011;5724;42.684;23.252;2023-06-14T10:02:09;13.23;;;12.25;;
11338;SDS011;5724;42.684;23.252;2023-06-14T10:04:40;12.15;;;10.95;;
11338;SDS011;5724;42.684;23.252;2023-06-14T10:07:16;12.90;;;11.98;;
11338;SDS011;5724;42.684;23.252;2023-06-14T10:09:45;11.90;;;11.05;;
11338;SDS011;5724;42.684;23.252;2023-06-14T10:12:16;12.95;;;12.05;;
11338;SDS011;5724;42.684;23.252;2023-06-14T10:14:47;13.30;;;12.30;;
11338;SDS011;5724;42.684;23.252;2023-06-14T10:17:35;12.77;;;11.88;;
11338;SDS011;5724;42.684;23.252;2023-06-14T10:23:03;12.93;;;12.13;;
11338;SDS011;5724;42.684;23.252;2023-06-14T10:25:33;13.25;;;12.30;;
11338;SDS011;5724;42.684;23.252;2023-06-14T10:30:37;13.13;;;12.02;;
11338;SDS011;5724;42.684;23.252;2023-06-14T10:33:06;11.82;;;11.02;;
11338;SDS011;5724;42.684;23.252;2023-06-14T10:35:33;11.82;;;11.07;;
11338;SDS011;5724;42.684;23.252;2023-06-14T10:38:11;12.32;;;11.13;;
11338;SDS011;5724;42.684;23.252;2023-06-14T10:40:38;12.65;;;11.55;;
11338;SDS011;5724;42.684;23.252;2023-06-14T10:43:23;13.43;;;12.13;;
11338;SDS011;5724;42.684;23.252;2023-06-14T10:48:41;12.25;;;11.10;;
11338;SDS011;5724;42.684;23.252;2023-06-14T10:51:15;13.00;;;12.02;;
11338;SDS011;5724;42.684;23.252;2023-06-14T10:53:45;12.45;;;11.55;;
11338;SDS011;5724;42.684;23.252;2023-06-14T10:56:23;12.43;;;11.52;;
11338;SDS011;5724;42.684;23.252;2023-06-14T10:58:53;12.10;;;10.95;;
11338;SDS011;5724;42.684;23.252;2023-06-14T11:01:23;11.35;;;10.48;;
11338;SDS011;5724;42.684;23.252;2023-06-14T11:04:10;11.40;;;10.52;;
11338;SDS011;5724;42.684;23.252;2023-06-14T11:06:46;10.98;;;10.38;;
11338;SDS011;5724;42.684;23.252;2023-06-14T11:11:59;11.65;;;10.95;;
11338;SDS011;5724;42.684;23.252;2023-06-14T11:14:29;12.10;;;11.18;;
11338;SDS011;5724;42.684;23.252;2023-06-14T11:16:56;11.27;;;10.52;;
11338;SDS011;5724;42.684;23.252;2023-06-14T11:19:21;11.55;;;10.75;;
11338;SDS011;5724;42.684;23.252;2023-06-14T11:21:47;11.63;;;10.77;;
11338;SDS011;5724;42.684;23.252;2023-06-14T11:24:13;11.95;;;11.02;;
11338;SDS011;5724;42.684;23.252;2023-06-14T11:26:40;11.68;;;10.85;;
11338;SDS011;5724;42.684;23.252;2023-06-14T11:29:05;11.80;;;11.10;;
11338;SDS011;5724;42.684;23.252;2023-06-14T11:31:32;11.57;;;10.63;;
11338;SDS011;5724;42.684;23.252;2023-06-14T11:33:57;11.75;;;10.68;;
11338;SDS011;5724;42.684;23.252;2023-06-14T11:36:31;10.75;;;9.85;;
11338;SDS011;5724;42.684;23.252;2023-06-14T11:39:05;9.55;;;9.00;;
11338;SDS011;5724;42.684;23.252;2023-06-14T11:41:37;11.95;;;11.23;;
11338;SDS011;5724;42.684;23.252;2023-06-14T11:44:10;11.10;;;10.20;;
11338;SDS011;5724;42.684;23.252;2023-06-14T11:46:36;11.52;;;10.45;;
11338;SDS011;5724;42.684;23.252;2023-06-14T11:49:03;11.07;;;10.48;;
11338;SDS011;5724;42.684;23.252;2023-06-14T11:51:32;10.32;;;9.82;;
11338;SDS011;5724;42.684;23.252;2023-06-14T11:54:00;10.65;;;9.88;;
11338;SDS011;5724;42.684;23.252;2023-06-14T11:56:30;11.15;;;10.35;;
11338;SDS011;5724;42.684;23.252;2023-06-14T11:58:57;9.82;;;9.32;;
11338;SDS011;5724;42.684;23.252;2023-06-14T12:01:24;10.30;;;9.70;;
11338;SDS011;5724;42.684;23.252;2023-06-14T12:03:51;9.95;;;9.45;;
11338;SDS011;5724;42.684;23.252;2023-06-14T12:06:28;9.38;;;8.93;;
11338;SDS011;5724;42.684;23.252;2023-06-14T12:08:57;9.23;;;8.73;;
11338;SDS011;5724;42.684;23.252;2023-06-14T12:11:23;9.88;;;9.15;;
11338;SDS011;5724;42.684;23.252;2023-06-14T12:13:53;8.85;;;8.40;;
11338;SDS011;5724;42.684;23.252;2023-06-14T12:16:18;9.65;;;8.95;;
11338;SDS011;5724;42.684;23.252;2023-06-14T12:18:44;9.88;;;9.27;;
11338;SDS011;5724;42.684;23.252;2023-06-14T12:21:10;9.23;;;8.73;;
11338;SDS011;5724;42.684;23.252;2023-06-14T12:28:40;8.48;;;7.97;;
11338;SDS011;5724;42.684;23.252;2023-06-14T12:31:10;7.35;;;6.78;;
11338;SDS011;5724;42.684;23.252;2023-06-14T12:33:38;7.68;;;7.38;;
11338;SDS011;5724;42.684;23.252;2023-06-14T12:36:04;8.73;;;8.07;;
11338;SDS011;5724;42.684;23.252;2023-06-14T12:38:32;8.05;;;7.45;;
11338;SDS011;5724;42.684;23.252;2023-06-14T12:40:58;7.65;;;7.25;;
11338;SDS011;5724;42.684;23.252;2023-06-14T12:43:23;13.27;;;8.25;;
11338;SDS011;5724;42.684;23.252;2023-06-14T12:45:49;7.07;;;6.72;;
11338;SDS011;5724;42.684;23.252;2023-06-14T12:48:14;7.88;;;7.15;;
11338;SDS011;5724;42.684;23.252;2023-06-14T12:50:40;7.05;;;6.65;;
11338;SDS011;5724;42.684;23.252;2023-06-14T12:53:06;7.53;;;7.00;;
11338;SDS011;5724;42.684;23.252;2023-06-14T12:55:32;7.72;;;7.28;;
11338;SDS011;5724;42.684;23.252;2023-06-14T12:57:57;7.10;;;6.43;;
11338;SDS011;5724;42.684;23.252;2023-06-14T13:00:23;6.65;;;6.30;;
11338;SDS011;5724;42.684;23.252;2023-06-14T13:02:50;6.50;;;6.00;;
11338;SDS011;5724;42.684;23.252;2023-06-14T13:05:17;6.72;;;6.28;;
11338;SDS011;5724;42.684;23.252;2023-06-14T13:07:43;6.45;;;6.05;;
11338;SDS011;5724;42.684;23.252;2023-06-14T13:10:09;7.60;;;6.80;;
11338;SDS011;5724;42.684;23.252;2023-06-14T13:12:35;7.85;;;7.25;;
11338;SDS011;5724;42.684;23.252;2023-06-14T13:15:00;7.50;;;7.10;;
11338;SDS011;5724;42.684;23.252;2023-06-14T13:17:26;7.28;;;6.60;;
11338;SDS011;5724;42.684;23.252;2023-06-14T13:19:51;6.82;;;6.43;;
11338;SDS011;5724;42.684;23.252;2023-06-14T13:22:17;7.03;;;6.63;;
11338;SDS011;5724;42.684;23.252;2023-06-14T13:24:44;7.53;;;7.07;;
11338;SDS011;5724;42.684;23.252;2023-06-14T13:27:09;7.78;;;7.18;;
11338;SDS011;5724;42.684;23.252;2023-06-14T13:29:36;7.35;;;6.70;;
11338;SDS011;5724;42.684;23.252;2023-06-14T13:32:02;6.60;;;6.30;;
11338;SDS011;5724;42.684;23.252;2023-06-14T13:34:29;6.72;;;6.32;;
11338;SDS011;5724;42.684;23.252;2023-06-14T13:36:55;5.95;;;5.50;;
11338;SDS011;5724;42.684;23.252;2023-06-14T13:39:21;5.97;;;5.57;;
11338;SDS011;5724;42.684;23.252;2023-06-14T13:41:48;6.55;;;6.15;;
11338;SDS011;5724;42.684;23.252;2023-06-14T13:44:14;6.75;;;6.35;;
11338;SDS011;5724;42.684;23.252;2023-06-14T13:46:42;7.38;;;6.78;;
11338;SDS011;5724;42.684;23.252;2023-06-14T13:49:08;6.75;;;6.45;;
11338;SDS011;5724;42.684;23.252;2023-06-14T13:51:34;6.38;;;6.07;;
11338;SDS011;5724;42.684;23.252;2023-06-14T13:54:00;7.25;;;6.75;;
11338;SDS011;5724;42.684;23.252;2023-06-14T13:56:26;7.97;;;7.47;;
11338;SDS011;5724;42.684;23.252;2023-06-14T13:58:51;8.25;;;7.53;;
11338;SDS011;5724;42.684;23.252;2023-06-14T14:01:17;8.05;;;7.43;;
11338;SDS011;5724;42.684;23.252;2023-06-14T14:03:46;7.75;;;7.28;;
11338;SDS011;5724;42.684;23.252;2023-06-14T14:06:12;7.90;;;7.40;;
11338;SDS011;5724;42.684;23.252;2023-06-14T14:08:38;8.10;;;7.45;;
11338;SDS011;5724;42.684;23.252;2023-06-14T14:11:04;8.05;;;7.53;;
11338;SDS011;5724;42.684;23.252;2023-06-14T14:13:31;8.23;;;7.72;;
11338;SDS011;5724;42.684;23.252;2023-06-14T14:15:56;9.93;;;9.07;;
11338;SDS011;5724;42.684;23.252;2023-06-14T14:18:22;8.32;;;7.82;;
11338;SDS011;5724;42.684;23.252;2023-06-14T14:20:48;9.02;;;8.38;;
11338;SDS011;5724;42.684;23.252;2023-06-14T14:23:14;8.23;;;7.82;;
11338;SDS011;5724;42.684;23.252;2023-06-14T14:25:40;8.00;;;7.47;;
11338;SDS011;5724;42.684;23.252;2023-06-14T14:28:06;8.25;;;7.65;;
11338;SDS011;5724;42.684;23.252;2023-06-14T14:30:31;7.53;;;7.22;;
11338;SDS011;5724;42.684;23.252;2023-06-14T14:32:57;8.25;;;7.68;;
11338;SDS011;5724;42.684;23.252;2023-06-14T14:35:23;7.97;;;7.38;;
11338;SDS011;5724;42.684;23.252;2023-06-14T14:37:51;8.63;;;8.13;;
11338;SDS011;5724;42.684;23.252;2023-06-14T14:40:17;7.75;;;7.35;;
11338;SDS011;5724;42.684;23.252;2023-06-14T14:42:42;8.57;;;8.07;;
11338;SDS011;5724;42.684;23.252;2023-06-14T14:45:08;9.57;;;8.98;;
11338;SDS011;5724;42.684;23.252;2023-06-14T14:47:33;9.02;;;8.43;;
11338;SDS011;5724;42.684;23.252;2023-06-14T14:49:59;8.18;;;7.57;;
11338;SDS011;5724;42.684;23.252;2023-06-14T14:52:25;10.98;;;10.07;;
11338;SDS011;5724;42.684;23.252;2023-06-14T14:54:51;9.15;;;8.45;;
11338;SDS011;5724;42.684;23.252;2023-06-14T14:57:18;7.68;;;7.07;;